createdAt,value
2022-10-25T00:00:58.162Z,99.90
2022-10-25T00:03:25.591Z,99.90
2022-10-25T00:05:53.023Z,99.90
2022-10-25T00:08:20.339Z,99.90
2022-10-25T00:10:47.683Z,99.90
2022-10-25T00:13:15.031Z,99.90
2022-10-25T00:15:43.061Z,99.90
2022-10-25T00:18:10.372Z,99.90
2022-10-25T00:20:38.268Z,99.90
2022-10-25T00:23:05.727Z,99.90
2022-10-25T00:25:33.101Z,99.90
2022-10-25T00:28:00.471Z,99.90
2022-10-25T00:30:27.836Z,99.90
2022-10-25T00:32:55.157Z,99.90
2022-10-25T00:35:22.479Z,99.90
2022-10-25T00:37:50.051Z,99.90
2022-10-25T00:40:17.799Z,99.90
2022-10-25T00:42:45.299Z,99.90
2022-10-25T00:45:25.691Z,99.90
2022-10-25T00:48:05.867Z,99.90
2022-10-25T00:50:44.959Z,99.90
2022-10-25T00:53:15.090Z,99.90
2022-10-25T00:55:45.519Z,99.90
2022-10-25T00:58:20.635Z,99.90
2022-10-25T01:00:48.364Z,99.90
2022-10-25T01:03:16.592Z,99.90
2022-10-25T01:05:44.273Z,99.90
2022-10-25T01:08:11.620Z,99.90
2022-10-25T01:10:39.067Z,99.90
2022-10-25T01:13:06.384Z,99.90
2022-10-25T01:15:44.997Z,99.90
2022-10-25T01:18:17.718Z,99.90
2022-10-25T01:20:54.018Z,99.90
2022-10-25T01:23:24.185Z,99.90
2022-10-25T01:26:03.575Z,99.90
2022-10-25T01:28:49.076Z,99.90
2022-10-25T01:31:45.603Z,99.90
2022-10-25T01:34:17.612Z,99.90
2022-10-25T01:37:08.242Z,99.90
2022-10-25T01:39:41.634Z,99.90
2022-10-25T01:42:24.387Z,99.90
2022-10-25T01:45:08.480Z,99.90
2022-10-25T01:47:50.602Z,99.90
2022-10-25T01:50:34.834Z,99.90
2022-10-25T01:53:02.170Z,99.90
2022-10-25T01:55:38.278Z,99.90
2022-10-25T01:58:17.573Z,99.90
2022-10-25T02:01:04.432Z,99.90
2022-10-25T02:03:53.163Z,99.90
2022-10-25T02:06:42.415Z,99.90
2022-10-25T02:09:33.885Z,99.90
2022-10-25T02:12:01.203Z,99.90
2022-10-25T02:14:34.311Z,99.90
2022-10-25T02:17:27.110Z,99.90
2022-10-25T02:19:57.111Z,99.90
2022-10-25T02:22:25.954Z,99.90
2022-10-25T02:24:53.319Z,99.90
2022-10-25T02:27:20.673Z,99.90
2022-10-25T02:29:47.987Z,99.90
2022-10-25T02:32:15.337Z,99.90
2022-10-25T02:34:42.682Z,99.90
2022-10-25T02:37:09.999Z,99.90
2022-10-25T02:39:37.294Z,99.90
2022-10-25T02:42:05.743Z,99.90
2022-10-25T02:44:33.177Z,99.90
2022-10-25T02:47:00.500Z,99.90
2022-10-25T02:49:28.461Z,99.90
2022-10-25T02:51:55.806Z,99.90
2022-10-25T02:54:23.211Z,99.90
2022-10-25T02:56:52.411Z,99.90
2022-10-25T02:59:21.208Z,99.90
2022-10-25T03:01:48.970Z,99.90
2022-10-25T03:04:16.365Z,99.90
2022-10-25T03:06:43.641Z,99.90
2022-10-25T03:09:10.914Z,99.90
2022-10-25T03:11:38.204Z,99.90
2022-10-25T03:14:05.484Z,99.90
2022-10-25T03:16:32.784Z,99.90
2022-10-25T03:19:00.103Z,99.90
2022-10-25T03:21:27.480Z,99.90
2022-10-25T03:23:54.915Z,99.90
2022-10-25T03:26:22.204Z,99.90
2022-10-25T03:28:49.487Z,99.90
2022-10-25T03:31:17.546Z,99.90
2022-10-25T03:33:44.926Z,99.90
2022-10-25T03:36:12.282Z,99.90
2022-10-25T03:38:39.590Z,99.90
2022-10-25T03:41:06.915Z,99.90
2022-10-25T03:43:34.178Z,99.90
2022-10-25T03:46:01.519Z,99.90
2022-10-25T03:48:28.878Z,99.90
2022-10-25T03:50:56.181Z,99.90
2022-10-25T03:53:23.501Z,99.90
2022-10-25T03:55:50.860Z,99.90
2022-10-25T03:58:19.716Z,99.90
2022-10-25T04:00:47.026Z,99.90
2022-10-25T04:03:14.351Z,99.90
2022-10-25T04:05:41.619Z,99.90
2022-10-25T04:08:08.895Z,99.90
2022-10-25T04:10:36.187Z,99.90
2022-10-25T04:13:03.697Z,99.90
2022-10-25T04:15:31.061Z,99.90
2022-10-25T04:17:58.371Z,99.90
2022-10-25T04:20:25.703Z,99.90
2022-10-25T04:22:56.739Z,99.90
2022-10-25T04:25:25.166Z,99.90
2022-10-25T04:27:52.467Z,99.90
2022-10-25T04:30:19.847Z,99.90
2022-10-25T04:32:47.492Z,99.90
2022-10-25T04:35:15.097Z,99.90
2022-10-25T04:37:42.420Z,99.90
2022-10-25T04:40:10.522Z,99.90
2022-10-25T04:42:37.822Z,99.90
2022-10-25T04:45:05.455Z,99.90
2022-10-25T04:47:33.858Z,99.90
2022-10-25T04:50:01.131Z,99.90
2022-10-25T04:52:31.705Z,99.90
2022-10-25T04:54:59.686Z,99.90
2022-10-25T04:57:27.032Z,99.90
2022-10-25T04:59:56.256Z,99.90
2022-10-25T05:02:24.255Z,99.90
2022-10-25T05:04:51.614Z,99.90
2022-10-25T05:07:19.528Z,99.90
2022-10-25T05:09:47.623Z,99.90
2022-10-25T05:12:15.165Z,99.90
2022-10-25T05:14:42.550Z,99.90
2022-10-25T05:17:09.838Z,99.90
2022-10-25T05:19:37.154Z,99.90
2022-10-25T05:22:04.499Z,99.90
2022-10-25T05:24:31.862Z,99.90
2022-10-25T05:26:59.147Z,99.90
2022-10-25T05:29:26.523Z,99.90
2022-10-25T05:31:53.894Z,99.90
2022-10-25T05:34:21.206Z,99.90
2022-10-25T05:36:48.507Z,99.90
2022-10-25T05:39:15.855Z,99.90
2022-10-25T05:41:43.196Z,99.90
2022-10-25T05:44:10.575Z,99.90
2022-10-25T05:46:37.839Z,99.90
2022-10-25T05:49:05.146Z,99.90
2022-10-25T05:51:35.765Z,99.90
2022-10-25T05:54:09.313Z,99.90
2022-10-25T05:56:36.712Z,99.90
2022-10-25T05:59:08.605Z,99.90
2022-10-25T06:01:37.110Z,99.90
2022-10-25T06:04:04.655Z,99.90
2022-10-25T06:06:31.998Z,99.90
2022-10-25T06:08:59.733Z,99.90
2022-10-25T06:11:27.734Z,99.90
2022-10-25T06:13:55.136Z,99.90
2022-10-25T06:16:22.719Z,99.90
2022-10-25T06:18:50.086Z,99.90
2022-10-25T06:21:19.333Z,99.90
2022-10-25T06:23:48.580Z,99.90
2022-10-25T06:26:23.271Z,99.90
2022-10-25T06:28:57.409Z,99.90
2022-10-25T06:31:24.793Z,99.90
2022-10-25T06:33:52.255Z,99.90
2022-10-25T06:36:23.416Z,99.90
2022-10-25T06:38:51.079Z,99.90
2022-10-25T06:41:23.148Z,99.90
2022-10-25T06:43:50.627Z,99.90
2022-10-25T06:46:24.970Z,99.90
2022-10-25T06:48:52.543Z,99.90
2022-10-25T06:51:19.872Z,99.90
2022-10-25T06:53:47.306Z,99.90
2022-10-25T06:56:15.261Z,99.90
2022-10-25T06:58:42.701Z,99.90
2022-10-25T07:01:14.754Z,99.90
2022-10-25T07:03:42.491Z,99.90
2022-10-25T07:06:17.151Z,99.90
2022-10-25T07:08:45.929Z,99.90
2022-10-25T07:11:15.331Z,99.90
2022-10-25T07:13:42.615Z,99.90
2022-10-25T07:16:11.693Z,99.90
2022-10-25T07:18:39.010Z,99.90
2022-10-25T07:21:20.272Z,99.90
2022-10-25T07:23:47.930Z,99.90
2022-10-25T07:26:20.086Z,99.90
2022-10-25T07:28:47.917Z,99.90
2022-10-25T07:31:29.472Z,99.90
2022-10-25T07:33:58.450Z,99.90
2022-10-25T07:36:25.850Z,99.90
2022-10-25T07:38:53.451Z,99.90
2022-10-25T07:41:20.755Z,99.90
2022-10-25T07:43:48.089Z,99.90
2022-10-25T07:46:15.438Z,99.90
2022-10-25T07:48:42.786Z,99.90
2022-10-25T07:51:11.552Z,99.90
2022-10-25T07:53:39.011Z,99.90
2022-10-25T07:56:06.801Z,99.90
2022-10-25T07:58:34.881Z,99.90
2022-10-25T08:01:07.441Z,99.90
2022-10-25T08:03:35.190Z,99.90
2022-10-25T08:06:02.661Z,99.90
2022-10-25T08:08:30.043Z,99.90
2022-10-25T08:10:57.496Z,99.90
2022-10-25T08:13:24.899Z,99.90
2022-10-25T08:15:53.075Z,99.90
2022-10-25T08:18:20.587Z,99.90
2022-10-25T08:21:03.973Z,99.90
2022-10-25T08:23:32.398Z,99.90
2022-10-25T08:26:00.662Z,99.90
2022-10-25T08:28:28.297Z,99.90
2022-10-25T08:30:55.808Z,99.90
2022-10-25T08:33:24.067Z,99.90
2022-10-25T08:35:51.951Z,99.90
2022-10-25T08:38:19.377Z,99.90
2022-10-25T08:41:01.922Z,99.90
2022-10-25T08:44:10.581Z,99.90
2022-10-25T08:46:59.136Z,99.90
2022-10-25T08:49:32.682Z,99.90
2022-10-25T08:52:00.368Z,99.90
2022-10-25T08:54:38.823Z,99.90
2022-10-25T08:57:24.960Z,99.90
2022-10-25T08:59:56.644Z,99.90
2022-10-25T09:02:38.778Z,99.90
2022-10-25T09:05:17.694Z,99.90
2022-10-25T09:08:02.635Z,99.90
2022-10-25T09:10:33.661Z,99.90
2022-10-25T09:13:30.266Z,99.90
2022-10-25T09:16:16.987Z,99.90
2022-10-25T09:18:54.988Z,99.90
2022-10-25T09:21:26.194Z,99.90
2022-10-25T09:24:10.735Z,99.90
2022-10-25T09:26:41.316Z,99.90
2022-10-25T09:29:38.917Z,99.90
2022-10-25T09:32:16.394Z,99.90
2022-10-25T09:34:43.747Z,99.90
2022-10-25T09:37:19.439Z,99.90
2022-10-25T09:39:49.462Z,99.90
2022-10-25T09:42:47.166Z,99.90
2022-10-25T09:45:42.053Z,99.90
2022-10-25T09:48:27.799Z,99.90
2022-10-25T09:51:26.248Z,99.90
2022-10-25T09:53:53.552Z,99.90
2022-10-25T09:56:20.919Z,99.90
2022-10-25T09:58:48.981Z,99.90
2022-10-25T10:01:23.654Z,99.90
2022-10-25T10:03:54.727Z,99.90
2022-10-25T10:06:32.047Z,99.90
2022-10-25T10:09:04.486Z,99.90
2022-10-25T10:11:32.287Z,99.90
2022-10-25T10:14:27.394Z,99.90
2022-10-25T10:16:55.311Z,99.60
2022-10-25T10:19:23.962Z,99.50
2022-10-25T10:22:14.289Z,99.90
2022-10-25T10:24:43.094Z,99.40
2022-10-25T10:27:12.155Z,99.80
2022-10-25T10:30:02.177Z,99.30
2022-10-25T10:32:31.743Z,99.30
2022-10-25T10:34:59.215Z,99.10
2022-10-25T10:37:27.612Z,98.70
2022-10-25T10:39:56.526Z,98.40
2022-10-25T10:45:08.687Z,99.10
2022-10-25T10:47:36.162Z,99.00
2022-10-25T10:50:22.028Z,98.80
2022-10-25T10:53:00.974Z,99.40
2022-10-25T10:55:32.003Z,99.30
2022-10-25T10:58:26.749Z,99.20
2022-10-25T11:01:05.298Z,99.70
2022-10-25T11:03:53.493Z,99.40
2022-10-25T11:06:35.518Z,98.70
2022-10-25T11:09:19.410Z,99.00
2022-10-25T11:12:07.461Z,98.50
2022-10-25T11:14:34.794Z,98.20
2022-10-25T11:17:18.626Z,97.80
2022-10-25T11:20:19.324Z,97.80
2022-10-25T11:22:53.636Z,96.80
2022-10-25T11:25:21.007Z,96.50
2022-10-25T11:28:00.306Z,96.60
2022-10-25T11:31:01.393Z,96.40
2022-10-25T11:33:45.423Z,95.90
2022-10-25T11:36:42.123Z,95.40
2022-10-25T11:39:48.209Z,95.40
2022-10-25T11:42:28.816Z,95.70
2022-10-25T11:45:21.050Z,95.50
2022-10-25T11:48:00.702Z,94.60
2022-10-25T11:50:40.087Z,95.00
2022-10-25T11:53:16.120Z,94.20
2022-10-25T11:56:02.341Z,97.80
2022-10-25T11:58:46.108Z,95.60
2022-10-25T12:01:35.179Z,96.50
2022-10-25T12:04:34.765Z,94.90
2022-10-25T12:07:22.783Z,94.70
2022-10-25T12:09:53.299Z,96.40
2022-10-25T12:12:23.940Z,96.10
2022-10-25T12:14:53.091Z,94.60
2022-10-25T12:17:27.523Z,96.00
2022-10-25T12:19:55.531Z,95.30
2022-10-25T12:22:46.332Z,94.70
2022-10-25T12:25:23.448Z,93.30
2022-10-25T12:28:06.547Z,93.30
2022-10-25T12:30:34.132Z,92.90
2022-10-25T12:33:34.768Z,92.70
2022-10-25T12:36:07.345Z,93.10
2022-10-25T12:38:36.594Z,92.20
2022-10-25T12:41:13.302Z,91.90
2022-10-25T12:44:22.446Z,91.90
2022-10-25T12:47:01.755Z,90.80
2022-10-25T12:49:54.238Z,92.50
2022-10-25T12:52:30.329Z,90.80
2022-10-25T12:55:35.382Z,92.00
2022-10-25T12:58:20.879Z,90.40
2022-10-25T13:01:07.048Z,92.40
2022-10-25T13:03:59.352Z,92.80
2022-10-25T13:06:31.272Z,91.90
2022-10-25T13:09:09.779Z,90.30
2022-10-25T13:12:18.420Z,89.80
2022-10-25T13:14:53.004Z,92.10
2022-10-25T13:17:20.322Z,91.70
2022-10-25T13:19:55.566Z,91.40
2022-10-25T13:22:34.177Z,91.10
2022-10-25T13:25:27.989Z,93.20
2022-10-25T13:28:31.449Z,92.60
2022-10-25T13:31:34.889Z,90.50
2022-10-25T13:34:14.496Z,89.90
2022-10-25T13:37:30.639Z,91.50
2022-10-25T13:43:01.144Z,91.50
2022-10-25T13:45:35.844Z,92.20
2022-10-25T13:48:31.199Z,91.60
2022-10-25T13:51:11.931Z,90.60
2022-10-25T13:53:43.568Z,91.10
2022-10-25T13:56:17.996Z,88.50
2022-10-25T13:58:46.355Z,87.70
2022-10-25T14:01:16.715Z,91.80
2022-10-25T14:04:02.308Z,91.50
2022-10-25T14:06:30.205Z,91.80
2022-10-25T14:09:22.078Z,90.00
2022-10-25T14:12:11.945Z,90.80
2022-10-25T14:15:03.452Z,90.00
2022-10-25T14:17:41.659Z,89.40
2022-10-25T14:22:50.814Z,90.20
2022-10-25T14:25:18.094Z,90.70
2022-10-25T14:27:45.470Z,90.40
2022-10-25T14:30:12.863Z,90.60
2022-10-25T14:32:48.053Z,91.00
2022-10-25T14:35:15.890Z,91.00
2022-10-25T14:37:43.477Z,90.90
2022-10-25T14:40:24.514Z,90.70
2022-10-25T14:42:54.355Z,90.80
2022-10-25T14:45:26.050Z,91.40
2022-10-25T14:47:53.470Z,91.50
2022-10-25T14:50:24.577Z,91.70
2022-10-25T14:52:51.954Z,92.00
2022-10-25T14:55:28.618Z,91.50
2022-10-25T14:57:55.953Z,91.00
2022-10-25T15:00:23.479Z,91.60
2022-10-25T15:02:54.664Z,91.50
2022-10-25T15:05:23.295Z,90.70
2022-10-25T15:07:57.285Z,91.10
2022-10-25T15:10:30.917Z,91.70
2022-10-25T15:13:12.620Z,91.30
2022-10-25T15:15:45.034Z,91.70
2022-10-25T15:18:42.397Z,92.20
2022-10-25T15:21:14.633Z,92.50
2022-10-25T15:23:43.046Z,92.70
2022-10-25T15:26:49.972Z,92.70
2022-10-25T15:29:45.011Z,93.20
2022-10-25T15:32:16.196Z,93.80
2022-10-25T15:34:45.304Z,93.90
2022-10-25T15:37:13.335Z,94.30
2022-10-25T15:42:15.344Z,94.40
2022-10-25T15:44:43.038Z,94.80
2022-10-25T15:47:41.099Z,95.10
2022-10-25T15:50:17.164Z,95.30
2022-10-25T15:52:45.015Z,95.50
2022-10-25T15:55:34.217Z,95.70
2022-10-25T15:58:01.649Z,96.00
2022-10-25T16:00:30.918Z,96.20
2022-10-25T16:02:58.705Z,96.40
2022-10-25T16:05:33.626Z,96.60
2022-10-25T16:08:01.195Z,97.10
2022-10-25T16:10:28.903Z,97.50
2022-10-25T16:13:01.869Z,97.80
2022-10-25T16:15:29.323Z,98.20
2022-10-25T16:17:56.685Z,98.20
2022-10-25T16:20:26.024Z,98.40
2022-10-25T16:22:54.147Z,98.50
2022-10-25T16:25:21.569Z,98.70
2022-10-25T16:27:50.431Z,99.00
2022-10-25T16:30:22.628Z,99.20
2022-10-25T16:32:50.535Z,99.40
2022-10-25T16:35:21.788Z,99.70
2022-10-25T16:37:49.373Z,99.90
2022-10-25T16:40:17.475Z,99.90
2022-10-25T16:42:44.974Z,99.90
2022-10-25T16:45:26.909Z,99.90
2022-10-25T16:47:58.012Z,99.90
2022-10-25T16:50:28.849Z,99.90
2022-10-25T16:53:00.715Z,99.90
2022-10-25T16:55:30.365Z,99.90
2022-10-25T16:57:58.334Z,99.90
2022-10-25T17:00:26.276Z,99.90
2022-10-25T17:02:53.680Z,99.90
2022-10-25T17:05:23.413Z,99.90
2022-10-25T17:08:04.894Z,99.90
2022-10-25T17:10:32.206Z,99.90
2022-10-25T17:13:03.520Z,99.90
2022-10-25T17:15:31.286Z,99.90
2022-10-25T17:17:58.772Z,99.90
2022-10-25T17:20:26.145Z,99.90
2022-10-25T17:22:54.614Z,99.90
2022-10-25T17:25:21.930Z,99.90
2022-10-25T17:27:53.002Z,99.90
2022-10-25T17:30:20.656Z,99.90
2022-10-25T17:32:48.091Z,99.90
2022-10-25T17:35:15.459Z,99.90
2022-10-25T17:37:44.455Z,99.90
2022-10-25T17:40:13.759Z,99.90
2022-10-25T17:42:41.267Z,99.90
2022-10-25T17:45:09.243Z,99.90
2022-10-25T17:47:37.631Z,99.90
2022-10-25T17:50:05.593Z,99.90
2022-10-25T17:52:32.937Z,99.90
2022-10-25T17:55:00.339Z,99.90
2022-10-25T17:57:27.727Z,99.90
2022-10-25T17:59:55.378Z,99.90
2022-10-25T18:02:22.851Z,99.90
2022-10-25T18:05:02.261Z,99.90
2022-10-25T18:07:37.942Z,99.90
2022-10-25T18:10:05.636Z,99.90
2022-10-25T18:12:32.951Z,99.90
2022-10-25T18:15:00.251Z,99.90
2022-10-25T18:17:27.622Z,99.90
2022-10-25T18:19:54.919Z,99.90
2022-10-25T18:22:22.266Z,99.90
2022-10-25T18:24:49.592Z,99.90
2022-10-25T18:27:16.954Z,99.90
2022-10-25T18:29:44.290Z,99.90
2022-10-25T18:32:11.704Z,99.90
2022-10-25T18:34:39.038Z,99.90
2022-10-25T18:37:06.883Z,99.90
2022-10-25T18:39:34.187Z,99.90
2022-10-25T18:42:01.535Z,99.90
2022-10-25T18:44:28.878Z,99.90
2022-10-25T18:46:56.209Z,99.90
2022-10-25T18:49:23.605Z,99.90
2022-10-25T18:51:51.000Z,99.90
2022-10-25T18:54:18.515Z,99.90
2022-10-25T18:56:45.794Z,99.90
2022-10-25T18:59:13.498Z,99.90
2022-10-25T19:01:41.118Z,99.90
2022-10-25T19:04:08.475Z,99.90
2022-10-25T19:06:35.809Z,99.90
2022-10-25T19:09:03.893Z,99.90
2022-10-25T19:11:32.754Z,99.90
2022-10-25T19:14:00.296Z,99.90
2022-10-25T19:16:27.707Z,99.90
2022-10-25T19:18:54.982Z,99.90
2022-10-25T19:21:22.329Z,99.90
2022-10-25T19:23:49.654Z,99.90
2022-10-25T19:26:18.752Z,99.90
2022-10-25T19:28:47.453Z,99.90
2022-10-25T19:31:16.624Z,99.90
2022-10-25T19:33:50.967Z,99.90
2022-10-25T19:36:18.434Z,99.90
2022-10-25T19:38:46.092Z,99.90
2022-10-25T19:41:15.295Z,99.90
2022-10-25T19:43:42.627Z,99.90
2022-10-25T19:46:10.602Z,99.90
2022-10-25T19:48:37.930Z,99.90
2022-10-25T19:51:12.320Z,99.90
2022-10-25T19:53:39.658Z,99.90
2022-10-25T19:56:08.995Z,99.90
2022-10-25T19:58:36.562Z,99.90
2022-10-25T20:01:09.286Z,99.90
2022-10-25T20:03:37.035Z,99.90
2022-10-25T20:06:06.910Z,99.90
2022-10-25T20:08:35.358Z,99.90
2022-10-25T20:11:02.739Z,99.90
2022-10-25T20:13:30.275Z,99.90
2022-10-25T20:19:45.696Z,99.90
2022-10-25T20:22:41.562Z,99.90
2022-10-25T20:26:02.672Z,99.90
2022-10-25T20:28:57.879Z,99.90
2022-10-25T20:31:25.833Z,99.90
2022-10-25T20:33:53.326Z,99.90
2022-10-25T20:36:20.729Z,99.90
2022-10-25T20:38:48.095Z,99.90
2022-10-25T20:41:23.620Z,99.90
2022-10-25T20:43:52.516Z,99.90
2022-10-25T20:46:20.681Z,99.90
2022-10-25T20:48:48.149Z,99.90
2022-10-25T20:51:15.804Z,99.90
2022-10-25T20:53:44.364Z,99.90
2022-10-25T20:56:12.487Z,99.90
2022-10-25T20:58:39.839Z,99.90
2022-10-25T21:01:07.356Z,99.90
2022-10-25T21:03:34.739Z,99.90
2022-10-25T21:06:03.995Z,99.90
2022-10-25T21:08:31.697Z,99.90
2022-10-25T21:11:04.186Z,99.90
2022-10-25T21:13:32.617Z,99.90
2022-10-25T21:16:08.803Z,99.90
2022-10-25T21:18:37.210Z,99.90
2022-10-25T21:21:06.825Z,99.90
2022-10-25T21:23:34.272Z,99.90
2022-10-25T21:26:02.974Z,99.90
2022-10-25T21:28:35.359Z,99.90
2022-10-25T21:31:10.382Z,99.90
2022-10-25T21:33:37.878Z,99.90
2022-10-25T21:36:10.098Z,99.90
2022-10-25T21:38:37.442Z,99.90
2022-10-25T21:41:09.420Z,99.90
2022-10-25T21:43:37.246Z,99.90
2022-10-25T21:46:05.551Z,99.90
2022-10-25T21:48:33.847Z,99.90
2022-10-25T21:51:01.188Z,99.90
2022-10-25T21:53:28.587Z,99.90
2022-10-25T21:56:05.157Z,99.90
2022-10-25T21:58:32.451Z,99.90
2022-10-25T22:00:59.731Z,99.90
2022-10-25T22:03:29.898Z,99.90
2022-10-25T22:05:57.638Z,99.90
2022-10-25T22:08:25.031Z,99.90
2022-10-25T22:13:31.976Z,99.90
2022-10-25T22:16:00.687Z,99.90
2022-10-25T22:18:28.017Z,99.90
2022-10-25T22:20:59.688Z,99.90
2022-10-25T22:23:27.922Z,99.90
2022-10-25T22:25:55.400Z,99.90
2022-10-25T22:28:22.740Z,99.90
2022-10-25T22:30:56.379Z,99.90
2022-10-25T22:33:23.684Z,99.90
2022-10-25T22:35:51.050Z,99.90
2022-10-25T22:38:18.604Z,99.90
2022-10-25T22:40:59.181Z,99.90
2022-10-25T22:43:27.499Z,99.90
2022-10-25T22:45:54.973Z,99.90
2022-10-25T22:48:22.465Z,99.90
2022-10-25T22:50:54.413Z,99.90
2022-10-25T22:53:21.821Z,99.90
2022-10-25T22:56:02.692Z,99.90
2022-10-25T22:58:32.589Z,99.90
2022-10-25T23:01:05.981Z,99.90
2022-10-25T23:03:37.343Z,99.90
2022-10-25T23:06:05.587Z,99.90
2022-10-25T23:08:33.429Z,99.90
2022-10-25T23:11:02.031Z,99.90
2022-10-25T23:13:33.449Z,99.90
2022-10-25T23:16:01.160Z,99.90
2022-10-25T23:18:28.479Z,99.90
2022-10-25T23:20:57.549Z,99.90
2022-10-25T23:23:25.382Z,99.90
2022-10-25T23:25:53.036Z,99.90
2022-10-25T23:28:20.666Z,99.90
2022-10-25T23:30:48.870Z,99.90
2022-10-25T23:33:17.327Z,99.90
2022-10-25T23:35:44.820Z,99.90
2022-10-25T23:38:12.686Z,99.90
2022-10-25T23:40:40.341Z,99.90
2022-10-25T23:43:08.311Z,99.90
2022-10-25T23:45:35.596Z,99.90
2022-10-25T23:48:02.879Z,99.90
2022-10-25T23:50:30.165Z,99.90
2022-10-25T23:52:57.740Z,99.90
2022-10-25T23:55:25.015Z,99.90
2022-10-25T23:57:58.563Z,99.90
